Time;durP1;ratioP1;P1;durP2;ratioP2;P2;SDS_P1;SDS_P2;PMS_P1;PMS_P2;Temp;Humidity;BMP_temperature;BMP_pressure;BME280_temperature;BME280_humidity;BME280_pressure;Samples;Min_cycle;Max_cycle;Signal;HPM_P1;HPM_P2
2021/04/28 00:00:10;;;;;;;9.50;7.00;;;8.40;63.00;;;;;;5093588;28;20494;-68
2021/04/28 00:02:36;;;;;;;7.67;6.90;;;8.40;63.00;;;;;;5093708;28;20888;-68
2021/04/28 00:05:06;;;;;;;9.40;6.53;;;8.40;63.60;;;;;;5093926;28;20404;-68
2021/04/28 00:07:32;;;;;;;8.87;6.40;;;8.40;63.70;;;;;;5093480;28;20542;-68
2021/04/28 00:09:58;;;;;;;11.87;6.87;;;8.40;64.60;;;;;;5093555;28;20399;-68
2021/04/28 00:12:23;;;;;;;6.80;6.20;;;8.40;65.00;;;;;;5093381;28;20459;-68
2021/04/28 00:14:49;;;;;;;7.40;6.63;;;8.40;64.90;;;;;;5093357;28;20519;-68
2021/04/28 00:17:15;;;;;;;7.00;6.40;;;8.30;65.30;;;;;;5093710;28;20174;-68
2021/04/28 00:19:40;;;;;;;8.40;6.73;;;8.30;66.70;;;;;;5093287;28;20169;-68
2021/04/28 00:22:06;;;;;;;8.80;7.90;;;8.30;68.40;;;;;;5093148;28;20170;-68
2021/04/28 00:24:32;;;;;;;8.97;7.50;;;8.30;69.00;;;;;;5093316;28;20192;-68
2021/04/28 00:26:57;;;;;;;12.93;6.80;;;8.30;69.80;;;;;;5093271;28;20236;-68
2021/04/28 00:29:23;;;;;;;8.77;7.37;;;8.20;70.40;;;;;;5093042;28;20177;-68
2021/04/28 00:31:48;;;;;;;7.90;6.37;;;8.20;71.00;;;;;;5093092;28;20273;-68
2021/04/28 00:34:14;;;;;;;8.20;6.90;;;8.20;71.30;;;;;;5093491;28;20157;-68
2021/04/28 00:36:40;;;;;;;8.10;7.40;;;8.20;72.00;;;;;;5093122;28;20164;-68
2021/04/28 00:39:06;;;;;;;7.43;6.73;;;8.20;72.80;;;;;;5093083;28;20881;-68
2021/04/28 00:41:33;;;;;;;7.83;6.70;;;8.20;73.40;;;;;;5093027;28;20157;-68
2021/04/28 00:43:59;;;;;;;6.97;6.27;;;8.10;73.50;;;;;;5093072;28;20563;-68
2021/04/28 00:46:24;;;;;;;7.30;6.53;;;8.10;74.60;;;;;;5092872;28;20415;-68
2021/04/28 00:48:50;;;;;;;9.17;6.47;;;8.10;74.40;;;;;;5093026;28;20468;-68
2021/04/28 00:51:15;;;;;;;8.17;6.43;;;8.10;75.70;;;;;;5092799;28;20196;-68
2021/04/28 00:53:42;;;;;;;7.70;6.47;;;8.00;76.20;;;;;;5092893;28;20220;-68
2021/04/28 00:56:08;;;;;;;7.80;7.10;;;8.00;77.60;;;;;;5092984;28;20162;-68
2021/04/28 00:58:34;;;;;;;7.00;6.30;;;8.00;77.50;;;;;;5093136;28;20446;-68
2021/04/28 01:01:00;;;;;;;8.47;6.30;;;8.00;77.90;;;;;;5092855;28;20399;-68
2021/04/28 01:03:27;;;;;;;8.13;6.97;;;8.00;78.10;;;;;;5092977;28;20241;-68
2021/04/28 01:05:55;;;;;;;7.40;6.70;;;8.00;78.80;;;;;;5092887;28;20171;-68
2021/04/28 01:08:21;;;;;;;10.20;6.63;;;7.90;79.20;;;;;;5092829;28;20398;-68
2021/04/28 01:10:48;;;;;;;8.30;6.50;;;7.90;79.40;;;;;;5092753;28;20869;-68
2021/04/28 01:13:14;;;;;;;11.23;7.10;;;7.90;80.40;;;;;;5092689;28;20282;-68
2021/04/28 01:15:39;;;;;;;7.20;6.60;;;7.90;82.00;;;;;;5092711;28;20486;-68
2021/04/28 01:18:05;;;;;;;9.77;6.53;;;7.90;82.00;;;;;;5092855;28;20262;-68
2021/04/28 01:20:36;;;;;;;10.80;6.17;;;7.80;82.30;;;;;;5092548;28;20251;-68
2021/04/28 01:23:02;;;;;;;9.30;6.97;;;7.80;83.20;;;;;;5092455;28;20415;-68
2021/04/28 01:25:28;;;;;;;7.30;6.13;;;7.80;83.50;;;;;;5092662;28;20899;-68
2021/04/28 01:27:59;;;;;;;8.27;7.03;;;7.70;84.20;;;;;;5092674;28;20392;-68
2021/04/28 01:30:30;;;;;;;7.70;6.90;;;7.70;84.90;;;;;;5092606;28;20158;-68
2021/04/28 01:32:57;;;;;;;9.23;6.50;;;7.70;85.90;;;;;;5092698;28;20454;-68
2021/04/28 01:35:25;;;;;;;7.20;6.30;;;7.60;86.20;;;;;;5092750;28;20453;-68
2021/04/28 01:37:50;;;;;;;8.13;6.70;;;7.60;87.50;;;;;;5092625;28;20428;-68
2021/04/28 01:40:18;;;;;;;8.37;6.90;;;7.60;88.20;;;;;;5092545;28;20387;-68
2021/04/28 01:42:46;;;;;;;8.17;7.10;;;7.50;88.70;;;;;;5092566;28;20860;-68
2021/04/28 01:45:13;;;;;;;7.50;6.80;;;7.50;89.60;;;;;;5092567;28;20397;-68
2021/04/28 01:47:40;;;;;;;8.63;6.67;;;7.50;90.20;;;;;;5092813;28;20403;-68
2021/04/28 01:50:08;;;;;;;8.70;7.27;;;7.40;90.40;;;;;;5092445;28;20869;-68
2021/04/28 01:52:34;;;;;;;12.77;7.30;;;7.40;90.80;;;;;;5092242;28;20547;-68
2021/04/28 01:55:00;;;;;;;7.93;7.13;;;7.40;91.20;;;;;;5092427;28;20445;-68
2021/04/28 01:57:26;;;;;;;9.23;7.67;;;7.30;91.10;;;;;;5092443;28;20500;-68
2021/04/28 01:59:52;;;;;;;9.10;6.90;;;7.30;91.50;;;;;;5094051;28;20203;-68
2021/04/28 02:02:18;;;;;;;10.70;7.40;;;7.30;91.80;;;;;;5096340;28;20502;-68
2021/04/28 02:04:44;;;;;;;7.67;6.87;;;7.20;92.30;;;;;;5096023;28;20832;-68
2021/04/28 02:07:11;;;;;;;8.33;7.10;;;7.20;92.40;;;;;;5095956;28;20422;-68
2021/04/28 02:09:37;;;;;;;8.70;6.83;;;7.20;93.00;;;;;;5095872;28;20761;-68
2021/04/28 02:12:03;;;;;;;9.20;6.50;;;7.10;92.80;;;;;;5095489;28;20559;-68
2021/04/28 02:14:31;;;;;;;8.97;7.50;;;7.10;93.20;;;;;;5095829;28;20474;-68
2021/04/28 02:16:58;;;;;;;7.80;7.00;;;7.10;93.50;;;;;;5095812;28;20492;-68
2021/04/28 02:19:23;;;;;;;9.50;7.17;;;7.10;93.70;;;;;;5095686;28;20448;-68
2021/04/28 02:21:51;;;;;;;10.37;6.93;;;7.10;94.20;;;;;;5095691;28;20763;-68
2021/04/28 02:24:17;;;;;;;7.83;7.03;;;7.00;94.60;;;;;;5095483;28;20186;-68
2021/04/28 02:26:44;;;;;;;8.10;6.77;;;7.00;95.00;;;;;;5095514;28;20405;-68
2021/04/28 02:29:11;;;;;;;8.53;7.47;;;7.00;95.40;;;;;;5095790;28;20502;-69
2021/04/28 02:31:38;;;;;;;8.57;7.57;;;7.00;95.80;;;;;;5096191;28;20866;-69
2021/04/28 02:34:05;;;;;;;8.07;7.27;;;6.90;96.10;;;;;;5095396;28;20761;-69
2021/04/28 02:36:34;;;;;;;8.40;7.13;;;6.90;96.60;;;;;;5095661;28;20425;-69
2021/04/28 02:39:04;;;;;;;9.43;7.07;;;6.90;96.50;;;;;;5095242;28;20406;-69
2021/04/28 02:41:30;;;;;;;8.80;7.50;;;6.90;96.70;;;;;;5095196;28;20394;-69
2021/04/28 02:43:57;;;;;;;7.70;7.00;;;6.80;97.00;;;;;;5095244;28;20394;-69
2021/04/28 02:46:23;;;;;;;9.07;7.33;;;6.80;97.20;;;;;;5095189;28;20173;-69
2021/04/28 02:48:50;;;;;;;9.27;6.60;;;6.80;97.60;;;;;;5095003;28;20463;-69
2021/04/28 02:51:16;;;;;;;7.80;7.10;;;6.80;98.00;;;;;;5095015;28;20490;-69
2021/04/28 02:53:44;;;;;;;9.70;7.80;;;6.70;98.30;;;;;;5094916;28;20850;-69
2021/04/28 02:56:11;;;;;;;12.20;7.50;;;6.70;98.50;;;;;;5094875;28;20393;-70
2021/04/28 02:58:39;;;;;;;8.40;7.10;;;6.70;98.90;;;;;;5095437;28;20489;-67
2021/04/28 03:01:06;;;;;;;10.50;7.80;;;6.60;99.40;;;;;;5095285;28;20410;-67
2021/04/28 03:03:33;;;;;;;10.90;7.40;;;6.60;99.70;;;;;;5094655;28;20420;-67
2021/04/28 03:05:59;;;;;;;9.07;7.87;;;6.50;99.90;;;;;;5094799;28;20809;-67
2021/04/28 03:08:25;;;;;;;8.73;7.73;;;6.50;99.90;;;;;;5094938;28;20455;-67
2021/04/28 03:10:52;;;;;;;8.93;7.93;;;6.50;99.90;;;;;;5094622;28;20402;-67
2021/04/28 03:13:18;;;;;;;9.00;8.30;;;6.40;99.90;;;;;;5094562;28;20195;-67
2021/04/28 03:15:44;;;;;;;10.30;7.60;;;6.40;99.90;;;;;;5094839;28;20390;-67
2021/04/28 03:18:11;;;;;;;9.70;8.40;;;6.40;99.90;;;;;;5094574;28;20496;-67
2021/04/28 03:20:41;;;;;;;8.33;7.53;;;6.40;99.90;;;;;;5094380;28;20436;-67
2021/04/28 03:23:07;;;;;;;7.53;6.83;;;6.40;99.90;;;;;;5094366;28;20413;-67
2021/04/28 03:25:33;;;;;;;11.73;7.53;;;6.40;99.90;;;;;;5094449;28;20385;-67
2021/04/28 03:27:58;;;;;;;8.43;7.63;;;6.30;99.90;;;;;;5094329;28;20477;-67
2021/04/28 03:30:24;;;;;;;9.87;8.83;;;6.30;99.90;;;;;;5094571;28;20159;-67
2021/04/28 03:32:50;;;;;;;9.63;8.57;;;6.30;99.90;;;;;;5094174;28;20195;-67
2021/04/28 03:35:15;;;;;;;9.20;8.30;;;6.20;99.90;;;;;;5094230;28;20608;-67
2021/04/28 03:37:43;;;;;;;10.90;7.20;;;6.20;99.90;;;;;;5094085;28;20236;-67
2021/04/28 03:40:09;;;;;;;9.73;7.40;;;6.20;99.90;;;;;;5094195;28;20579;-67
2021/04/28 03:42:34;;;;;;;9.47;8.50;;;6.10;99.90;;;;;;5094181;28;20474;-67
2021/04/28 03:45:00;;;;;;;9.40;8.40;;;6.10;99.90;;;;;;5094098;28;20489;-67
2021/04/28 03:47:25;;;;;;;9.47;8.17;;;6.10;99.90;;;;;;5093965;28;20238;-67
2021/04/28 03:49:51;;;;;;;8.80;7.43;;;6.10;99.90;;;;;;5093965;28;20163;-67
2021/04/28 03:52:17;;;;;;;10.40;8.00;;;6.10;99.90;;;;;;5093706;28;20199;-67
2021/04/28 03:54:42;;;;;;;9.80;8.63;;;6.00;99.90;;;;;;5093663;28;20564;-67
2021/04/28 03:57:10;;;;;;;8.07;7.27;;;6.00;99.90;;;;;;5094057;28;20174;-67
2021/04/28 03:59:35;;;;;;;8.00;7.30;;;6.00;99.90;;;;;;5094213;28;20181;-67
2021/04/28 04:02:01;;;;;;;9.57;8.57;;;6.00;99.90;;;;;;5093754;28;20400;-67
2021/04/28 04:04:27;;;;;;;10.40;8.67;;;6.00;99.90;;;;;;5093724;28;20169;-67
2021/04/28 04:06:53;;;;;;;9.27;7.80;;;6.00;99.90;;;;;;5093693;28;20783;-67
2021/04/28 04:09:18;;;;;;;9.60;8.30;;;5.90;99.90;;;;;;5093440;28;20175;-67
2021/04/28 04:11:44;;;;;;;9.70;8.80;;;5.90;99.90;;;;;;5093830;28;20453;-68
2021/04/28 04:14:10;;;;;;;9.37;8.40;;;5.90;99.90;;;;;;5094358;28;20519;-67
2021/04/28 04:16:35;;;;;;;9.83;8.40;;;5.90;99.90;;;;;;5093702;28;20420;-67
2021/04/28 04:19:01;;;;;;;9.80;8.37;;;5.80;99.90;;;;;;5093444;28;20655;-67
2021/04/28 04:21:26;;;;;;;11.30;7.77;;;5.80;99.90;;;;;;5093505;28;20159;-67
2021/04/28 04:23:54;;;;;;;9.23;8.33;;;5.80;99.90;;;;;;5092882;28;20181;-67
2021/04/28 04:26:20;;;;;;;10.40;8.07;;;5.80;99.90;;;;;;5093896;28;20200;-67
2021/04/28 04:28:46;;;;;;;9.27;7.43;;;5.80;99.90;;;;;;5093951;28;20833;-67
2021/04/28 04:31:11;;;;;;;9.37;7.93;;;5.80;99.90;;;;;;5093295;28;20433;-67
2021/04/28 04:33:37;;;;;;;9.93;8.80;;;5.80;99.90;;;;;;5093246;28;20188;-67
2021/04/28 04:36:02;;;;;;;9.60;8.60;;;5.80;99.90;;;;;;5093225;28;20159;-67
2021/04/28 04:38:28;;;;;;;10.47;8.40;;;5.80;99.90;;;;;;5093151;28;20151;-67
2021/04/28 04:40:54;;;;;;;11.00;9.40;;;5.80;99.90;;;;;;5093613;28;20158;-67
2021/04/28 04:43:20;;;;;;;12.43;9.33;;;5.80;99.90;;;;;;5093748;28;20174;-67
2021/04/28 04:45:45;;;;;;;11.20;10.03;;;5.80;99.90;;;;;;5093014;28;20421;-67
2021/04/28 04:48:11;;;;;;;10.23;9.10;;;5.80;99.90;;;;;;5093032;28;20173;-67
2021/04/28 04:50:37;;;;;;;11.30;9.30;;;5.80;99.90;;;;;;5093069;28;20162;-67
2021/04/28 04:53:04;;;;;;;10.57;8.47;;;5.80;99.90;;;;;;5092916;28;20280;-67
2021/04/28 04:55:30;;;;;;;11.60;10.00;;;5.80;99.90;;;;;;5093866;28;20385;-67
2021/04/28 04:57:56;;;;;;;12.10;10.00;;;5.80;99.90;;;;;;5093648;28;20397;-67
2021/04/28 05:00:22;;;;;;;9.93;8.60;;;5.80;99.90;;;;;;5092850;28;20186;-67
2021/04/28 05:02:48;;;;;;;11.90;9.20;;;5.80;99.90;;;;;;5092899;28;20177;-67
2021/04/28 05:05:14;;;;;;;13.77;9.23;;;5.90;99.90;;;;;;5093261;28;21015;-67
2021/04/28 05:07:40;;;;;;;13.00;10.43;;;5.90;99.90;;;;;;5093190;28;20640;-67
2021/04/28 05:10:08;;;;;;;15.70;10.17;;;5.90;99.90;;;;;;5093826;28;20396;-68
2021/04/28 05:12:34;;;;;;;10.60;8.60;;;5.90;99.90;;;;;;5093095;28;20451;-67
2021/04/28 05:14:59;;;;;;;10.30;9.27;;;5.90;99.90;;;;;;5092709;28;20409;-67
2021/04/28 05:17:25;;;;;;;13.80;10.10;;;6.00;99.90;;;;;;5093120;28;20171;-67
2021/04/28 05:19:50;;;;;;;11.23;9.70;;;6.00;99.90;;;;;;5092801;28;20640;-67
2021/04/28 05:22:21;;;;;;;11.60;9.93;;;6.00;99.90;;;;;;5092779;28;20526;-67
2021/04/28 05:24:47;;;;;;;11.07;9.90;;;6.10;99.90;;;;;;5093620;28;20153;-67
2021/04/28 05:27:12;;;;;;;11.67;9.30;;;6.10;99.90;;;;;;5093366;28;20927;-67
2021/04/28 05:29:38;;;;;;;15.20;11.20;;;6.20;99.90;;;;;;5092791;28;20155;-67
2021/04/28 05:32:04;;;;;;;13.93;10.30;;;6.20;99.90;;;;;;5092750;28;20285;-67
2021/04/28 05:34:29;;;;;;;9.90;8.93;;;6.30;99.90;;;;;;5093576;28;20625;-67
2021/04/28 05:36:55;;;;;;;15.10;10.53;;;6.30;99.90;;;;;;5096724;28;20655;-67
2021/04/28 05:39:20;;;;;;;14.53;10.90;;;6.40;99.90;;;;;;5097705;28;20215;-68
2021/04/28 05:41:46;;;;;;;17.03;10.30;;;6.50;99.90;;;;;;5097150;28;20150;-67
2021/04/28 05:44:12;;;;;;;11.97;10.70;;;6.50;99.90;;;;;;5096802;28;20196;-67
2021/04/28 05:46:38;;;;;;;12.47;10.50;;;6.70;99.90;;;;;;5096501;28;20157;-67
2021/04/28 05:49:04;;;;;;;12.17;10.80;;;6.80;99.90;;;;;;5096744;28;20169;-67
2021/04/28 05:51:30;;;;;;;15.53;11.13;;;6.90;99.90;;;;;;5096697;28;20439;-67
2021/04/28 05:53:56;;;;;;;17.70;11.20;;;7.00;99.90;;;;;;5096601;28;20204;-68
2021/04/28 05:56:22;;;;;;;20.17;11.60;;;7.10;99.90;;;;;;5096487;28;20398;-67
2021/04/28 05:58:47;;;;;;;12.83;10.87;;;7.20;99.90;;;;;;5095910;28;20195;-68
2021/04/28 06:01:13;;;;;;;12.70;11.43;;;7.30;99.90;;;;;;5096280;28;20168;-67
2021/04/28 06:03:42;;;;;;;14.13;11.60;;;7.40;99.90;;;;;;5096183;28;20186;-67
2021/04/28 06:06:09;;;;;;;15.23;12.33;;;7.50;99.90;;;;;;5097322;28;20390;-67
2021/04/28 06:08:35;;;;;;;16.83;11.40;;;7.60;99.90;;;;;;5096901;28;20382;-67
2021/04/28 06:11:01;;;;;;;12.40;11.10;;;7.70;99.90;;;;;;5095936;28;20892;-67
2021/04/28 06:13:27;;;;;;;18.73;11.17;;;7.80;99.90;;;;;;5095929;28;20613;-68
2021/04/28 06:15:52;;;;;;;18.77;12.60;;;7.90;99.90;;;;;;5096000;28;20415;-67
2021/04/28 06:18:18;;;;;;;14.70;12.70;;;8.00;99.90;;;;;;5095811;28;20184;-67
2021/04/28 06:20:43;;;;;;;18.23;11.70;;;8.00;99.90;;;;;;5096828;28;20172;-67
2021/04/28 06:23:09;;;;;;;16.93;11.47;;;8.10;99.30;;;;;;5096131;28;20205;-68
2021/04/28 06:25:35;;;;;;;17.13;11.37;;;8.20;99.00;;;;;;5095853;28;20158;-67
2021/04/28 06:28:00;;;;;;;11.47;10.27;;;8.30;98.70;;;;;;5095615;28;20248;-67
2021/04/28 06:30:26;;;;;;;15.23;11.17;;;8.40;98.60;;;;;;5095802;28;20531;-67
2021/04/28 06:32:51;;;;;;;18.13;10.83;;;8.50;98.10;;;;;;5095657;28;20676;-67
2021/04/28 06:35:17;;;;;;;16.00;10.40;;;8.60;97.80;;;;;;5095962;28;20142;-67
2021/04/28 06:37:43;;;;;;;13.23;10.00;;;8.70;97.30;;;;;;5095982;28;20215;-67
2021/04/28 06:40:11;;;;;;;15.97;11.07;;;8.90;96.80;;;;;;5095733;28;20388;-67
2021/04/28 06:42:37;;;;;;;18.10;10.60;;;9.00;96.40;;;;;;5095476;28;20209;-67
2021/04/28 06:45:04;;;;;;;14.60;10.20;;;9.10;96.00;;;;;;5095036;28;20420;-68
2021/04/28 06:47:30;;;;;;;23.03;11.20;;;9.20;95.30;;;;;;5095352;28;20554;-67
2021/04/28 06:49:55;;;;;;;13.47;11.67;;;9.30;94.70;;;;;;5096986;28;20427;-68
2021/04/28 06:52:21;;;;;;;13.50;10.73;;;9.50;94.40;;;;;;5095180;28;20212;-68
2021/04/28 06:54:47;;;;;;;15.00;11.57;;;9.60;93.60;;;;;;5095091;28;20169;-68
2021/04/28 06:57:12;;;;;;;13.47;12.00;;;9.80;92.70;;;;;;5095113;28;20158;-68
2021/04/28 06:59:38;;;;;;;16.30;11.57;;;9.90;92.10;;;;;;5095070;28;20608;-67
2021/04/28 07:02:03;;;;;;;14.97;11.70;;;10.10;90.90;;;;;;5094779;28;20650;-68
2021/04/28 07:04:29;;;;;;;17.70;11.30;;;10.30;90.30;;;;;;5095273;28;20165;-68
2021/04/28 07:06:54;;;;;;;13.20;9.90;;;10.40;88.70;;;;;;5095576;28;20158;-68
2021/04/28 07:09:20;;;;;;;20.20;11.13;;;10.60;87.20;;;;;;5094920;28;20156;-68
2021/04/28 07:11:46;;;;;;;15.13;10.43;;;10.90;85.40;;;;;;5094800;28;20170;-68
2021/04/28 07:14:12;;;;;;;15.43;10.70;;;11.10;83.10;;;;;;5094900;28;20560;-68
2021/04/28 07:16:38;;;;;;;18.60;10.20;;;11.30;81.10;;;;;;5094850;28;20247;-68
2021/04/28 07:19:04;;;;;;;12.80;9.30;;;11.50;79.30;;;;;;5094848;28;20438;-68
2021/04/28 07:21:30;;;;;;;13.07;10.13;;;11.70;77.70;;;;;;5095298;28;20293;-68
2021/04/28 07:23:55;;;;;;;14.30;9.50;;;11.90;77.90;;;;;;5094650;28;20430;-68
2021/04/28 07:26:21;;;;;;;9.80;8.80;;;12.00;74.50;;;;;;5094645;28;20148;-68
2021/04/28 07:28:49;;;;;;;11.60;10.00;;;12.10;73.70;;;;;;5094508;28;20234;-68
2021/04/28 07:31:19;;;;;;;14.67;8.63;;;12.30;71.90;;;;;;5094582;28;20159;-68
2021/04/28 07:33:45;;;;;;;11.20;9.60;;;12.60;71.30;;;;;;5094324;28;20440;-68
2021/04/28 07:36:11;;;;;;;14.43;9.73;;;12.90;67.00;;;;;;5094756;28;20408;-68
2021/04/28 07:38:37;;;;;;;11.63;8.90;;;13.10;65.70;;;;;;5094344;28;20163;-68
2021/04/28 07:41:03;;;;;;;11.47;9.20;;;13.70;63.30;;;;;;5094280;28;20482;-68
2021/04/28 07:43:28;;;;;;;9.97;8.67;;;14.70;60.70;;;;;;5094366;28;20169;-68
2021/04/28 07:45:54;;;;;;;11.07;8.07;;;16.00;55.80;;;;;;5094353;28;20400;-68
2021/04/28 07:48:20;;;;;;;8.70;7.53;;;17.40;51.20;;;;;;5094237;28;20165;-69
2021/04/28 07:50:46;;;;;;;13.47;8.43;;;18.90;47.00;;;;;;5094587;28;20166;-68
2021/04/28 07:53:12;;;;;;;11.30;7.90;;;20.10;43.70;;;;;;5093599;28;20460;-68
2021/04/28 07:55:37;;;;;;;10.50;8.00;;;21.20;41.00;;;;;;5093897;28;20216;-68
2021/04/28 07:58:04;;;;;;;8.30;7.60;;;22.10;38.70;;;;;;5093152;28;20416;-68
2021/04/28 08:00:30;;;;;;;8.43;5.93;;;22.80;37.30;;;;;;5093985;28;20549;-68
2021/04/28 08:02:56;;;;;;;9.30;8.30;;;23.50;36.00;;;;;;5093930;28;20810;-68
2021/04/28 08:05:22;;;;;;;9.57;7.50;;;24.10;34.80;;;;;;5093991;28;20397;-68
2021/04/28 08:07:49;;;;;;;14.03;7.60;;;24.40;33.70;;;;;;5093768;28;20161;-68
2021/04/28 08:10:15;;;;;;;10.13;7.27;;;24.70;33.40;;;;;;5093624;28;20401;-68
2021/04/28 08:12:41;;;;;;;7.17;6.53;;;25.00;32.60;;;;;;5093715;28;20444;-69
2021/04/28 08:15:08;;;;;;;7.60;6.57;;;25.20;32.10;;;;;;5093657;28;20392;-69
2021/04/28 08:17:34;;;;;;;8.83;7.90;;;25.50;31.50;;;;;;5093937;28;20151;-69
2021/04/28 08:20:00;;;;;;;8.60;6.50;;;25.70;31.20;;;;;;5093764;28;20454;-69
2021/04/28 08:22:26;;;;;;;6.60;6.00;;;26.10;30.10;;;;;;5093266;28;20185;-69
2021/04/28 08:24:52;;;;;;;6.43;5.50;;;26.60;29.90;;;;;;5093377;28;20898;-70
2021/04/28 08:27:18;;;;;;;7.10;6.40;;;27.50;27.10;;;;;;5093447;28;20183;-70
2021/04/28 08:29:44;;;;;;;9.40;6.03;;;28.40;25.60;;;;;;5093429;28;20485;-68
2021/04/28 08:32:10;;;;;;;8.80;6.40;;;29.10;25.00;;;;;;5093502;28;20880;-68
2021/04/28 08:34:35;;;;;;;5.80;5.20;;;29.80;24.70;;;;;;5093794;28;20159;-68
2021/04/28 08:37:01;;;;;;;7.50;6.80;;;29.30;24.10;;;;;;5093350;28;20515;-68
2021/04/28 08:39:27;;;;;;;6.50;6.00;;;28.30;24.60;;;;;;5093310;28;20190;-68
2021/04/28 08:41:52;;;;;;;8.00;6.00;;;27.00;25.60;;;;;;5093404;28;20161;-67
2021/04/28 08:44:19;;;;;;;6.80;6.20;;;24.90;25.40;;;;;;5093047;28;20166;-67
2021/04/28 08:46:45;;;;;;;7.10;6.10;;;23.50;27.40;;;;;;5093699;28;20175;-67
2021/04/28 08:49:12;;;;;;;5.60;5.10;;;22.70;28.20;;;;;;5093511;28;20881;-67
2021/04/28 08:51:38;;;;;;;11.27;5.70;;;22.10;29.10;;;;;;5092946;28;20428;-67
2021/04/28 08:54:05;;;;;;;6.50;5.40;;;21.70;29.90;;;;;;5093152;28;20495;-67
2021/04/28 08:56:31;;;;;;;7.93;5.90;;;21.30;30.10;;;;;;5093074;28;20455;-67
2021/04/28 08:58:58;;;;;;;7.63;5.50;;;21.20;30.40;;;;;;5092912;28;20532;-67
2021/04/28 09:01:29;;;;;;;5.90;5.37;;;21.30;30.60;;;;;;5092860;28;20408;-67
2021/04/28 09:03:56;;;;;;;13.60;6.07;;;21.70;30.00;;;;;;5093298;28;20870;-70
2021/04/28 09:06:38;;;;;;;5.93;5.10;;;22.50;29.80;;;;;;5093093;28;20400;-70
2021/04/28 09:09:05;;;;;;;5.77;5.27;;;23.50;29.40;;;;;;5095336;28;20395;-70
2021/04/28 09:11:35;;;;;;;6.03;5.50;;;24.70;28.00;;;;;;5097380;28;20401;-68
2021/04/28 09:14:06;;;;;;;5.37;4.87;;;25.50;26.80;;;;;;5097071;28;20450;-68
2021/04/28 09:16:32;;;;;;;5.23;4.70;;;26.20;25.90;;;;;;5097351;28;20477;-68
2021/04/28 09:18:58;;;;;;;6.33;5.70;;;26.30;25.00;;;;;;5097091;28;20396;-68
2021/04/28 09:21:53;;;;;;;6.87;6.17;;;26.30;25.70;;;;;;5097168;28;20738;-68
2021/04/28 09:24:21;;;;;;;6.73;5.03;;;26.40;26.10;;;;;;5095955;28;20285;-68
2021/04/28 09:26:47;;;;;;;5.03;4.43;;;25.90;26.00;;;;;;5096982;28;20440;-68
2021/04/28 09:29:18;;;;;;;4.67;4.27;;;25.80;25.90;;;;;;5097136;28;20409;-68
2021/04/28 09:32:05;;;;;;;4.47;4.07;;;25.80;25.90;;;;;;5097026;28;20163;-68
2021/04/28 09:34:35;;;;;;;4.83;4.43;;;25.60;26.30;;;;;;5095517;28;20998;-67
2021/04/28 09:37:17;;;;;;;7.07;4.90;;;25.70;26.50;;;;;;5096767;28;20393;-67
2021/04/28 09:39:47;;;;;;;5.07;4.67;;;25.80;25.80;;;;;;5096844;28;20885;-67
2021/04/28 09:42:15;;;;;;;3.90;3.60;;;25.80;26.00;;;;;;5096667;28;20404;-67
2021/04/28 09:44:45;;;;;;;5.83;4.77;;;25.30;25.00;;;;;;5096989;28;20393;-67
2021/04/28 09:47:21;;;;;;;5.00;4.50;;;24.90;24.80;;;;;;5096806;28;20881;-68
2021/04/28 10:00:32;;;;;;;5.00;4.60;;;25.10;26.30;;;;;;5070687;28;20525;-69
2021/04/28 10:03:02;;;;;;;5.40;4.90;;;25.10;26.30;;;;;;5070467;28;20394;-69
2021/04/28 10:05:34;;;;;;;5.27;4.77;;;24.60;26.00;;;;;;5070553;28;20163;-69
2021/04/28 10:08:21;;;;;;;5.87;4.70;;;24.20;26.50;;;;;;5062183;28;20428;-69
2021/04/28 10:13:23;;;;;;;4.87;4.40;;;24.00;26.70;;;;;;5111363;27;20505;-68
2021/04/28 10:15:51;;;;;;;4.70;4.30;;;23.50;26.90;;;;;;5111194;28;20879;-68
2021/04/28 10:18:18;;;;;;;4.20;3.73;;;23.20;26.70;;;;;;5111163;28;20162;-68
2021/04/28 10:20:45;;;;;;;4.40;4.00;;;22.90;26.80;;;;;;5110822;28;20455;-68
2021/04/28 10:23:15;;;;;;;5.53;4.47;;;22.70;27.20;;;;;;5110750;28;20887;-68
2021/04/28 10:25:42;;;;;;;4.70;4.17;;;22.40;27.20;;;;;;5109976;28;20842;-69
2021/04/28 10:28:10;;;;;;;6.07;4.90;;;22.30;27.80;;;;;;5111167;28;20444;-69
2021/04/28 10:30:40;;;;;;;4.93;3.77;;;21.90;27.60;;;;;;5110481;28;20767;-68
2021/04/28 10:33:12;;;;;;;5.73;4.47;;;21.50;27.40;;;;;;5111071;28;20510;-69
2021/04/28 10:35:38;;;;;;;5.70;4.27;;;21.20;27.20;;;;;;5111085;28;20388;-68
2021/04/28 10:38:04;;;;;;;5.00;4.50;;;20.90;27.10;;;;;;5110277;28;20410;-68
2021/04/28 10:40:29;;;;;;;4.93;4.40;;;20.70;27.80;;;;;;5110339;28;20937;-68
2021/04/28 10:43:07;;;;;;;4.67;4.20;;;20.50;28.80;;;;;;5109849;28;20182;-69
2021/04/28 10:45:40;;;;;;;5.60;5.10;;;20.30;28.00;;;;;;5110367;28;20516;-68
2021/04/28 10:48:11;;;;;;;5.20;4.70;;;20.00;28.40;;;;;;5110356;28;20393;-68
2021/04/28 10:50:39;;;;;;;6.30;4.77;;;19.80;28.70;;;;;;5110265;28;20504;-68
2021/04/28 10:53:17;;;;;;;5.17;4.47;;;19.70;28.60;;;;;;5110124;28;20440;-68
2021/04/28 10:56:07;;;;;;;5.37;4.87;;;19.50;28.60;;;;;;5110171;28;20395;-68
2021/04/28 11:03:50;;;;;;;7.90;5.43;;;19.50;29.30;;;;;;5110820;27;20845;-68
2021/04/28 11:16:55;;;;;;;8.00;6.07;;;19.30;28.90;;;;;;5087999;27;20523;-69
2021/04/28 11:24:58;;;;;;;5.00;4.47;;;19.10;29.40;;;;;;5079119;28;20518;-68
2021/04/28 11:28:02;;;;;;;6.23;5.30;;;18.90;30.60;;;;;;5047217;28;20936;-67
2021/04/28 11:30:32;;;;;;;6.63;5.10;;;18.90;30.00;;;;;;5059520;28;20413;-67
2021/04/28 11:38:19;;;;;;;8.27;5.77;;;18.80;30.10;;;;;;5110864;27;20561;-68
2021/04/28 11:43:25;;;;;;;8.10;6.23;;;18.80;29.60;;;;;;5106520;27;20523;-69
2021/04/28 11:45:52;;;;;;;8.10;5.90;;;18.80;29.30;;;;;;5090406;28;20417;-69
2021/04/28 11:50:59;;;;;;;8.40;7.03;;;18.80;31.10;;;;;;5114798;27;20568;-69
2021/04/28 11:53:26;;;;;;;8.30;7.50;;;18.80;31.20;;;;;;5111112;28;20427;-69
2021/04/28 11:55:52;;;;;;;10.27;6.77;;;18.80;31.00;;;;;;5111359;28;20508;-69
2021/04/28 12:03:59;;;;;;;8.30;6.67;;;18.50;31.90;;;;;;5111642;27;20826;-69
2021/04/28 12:06:29;;;;;;;9.90;6.63;;;18.50;32.40;;;;;;5107241;28;20469;-69
2021/04/28 12:09:07;;;;;;;10.50;9.40;;;18.60;32.10;;;;;;5091257;28;20443;-69
2021/04/28 12:11:34;;;;;;;8.23;6.93;;;18.60;32.60;;;;;;5090591;28;20377;-69
2021/04/28 12:14:00;;;;;;;7.50;5.63;;;18.70;31.00;;;;;;5090339;28;20386;-69
2021/04/28 12:16:25;;;;;;;10.20;6.17;;;18.80;30.60;;;;;;5090383;28;20396;-69
2021/04/28 12:19:06;;;;;;;8.43;5.87;;;18.90;30.20;;;;;;5090209;28;20506;-69
2021/04/28 12:21:32;;;;;;;6.07;5.47;;;18.90;30.40;;;;;;5089994;28;20171;-69
2021/04/28 12:23:59;;;;;;;7.10;5.40;;;18.80;30.00;;;;;;5106845;28;20411;-69
2021/04/28 12:26:25;;;;;;;6.60;5.80;;;18.80;31.20;;;;;;5110364;28;20158;-69
2021/04/28 12:28:51;;;;;;;7.17;5.53;;;18.90;31.70;;;;;;5110560;28;20385;-69
2021/04/28 12:31:16;;;;;;;6.47;4.50;;;18.90;30.30;;;;;;5110200;28;20189;-69
2021/04/28 12:33:42;;;;;;;6.83;5.77;;;18.90;30.10;;;;;;5110415;28;20245;-69
2021/04/28 12:36:08;;;;;;;9.90;7.10;;;18.90;30.40;;;;;;5110176;28;20162;-69
2021/04/28 12:38:40;;;;;;;7.27;6.10;;;19.00;31.60;;;;;;5110426;28;20269;-69
2021/04/28 12:41:07;;;;;;;7.30;6.47;;;19.00;32.00;;;;;;5109353;28;20769;-69
2021/04/28 12:43:39;;;;;;;7.10;6.40;;;18.90;31.60;;;;;;5110128;28;20442;-69
2021/04/28 12:46:08;;;;;;;7.83;5.93;;;18.90;31.80;;;;;;5110101;28;20387;-69
2021/04/28 12:48:55;;;;;;;7.40;6.70;;;18.80;31.80;;;;;;5110042;28;20387;-69
2021/04/28 12:51:22;;;;;;;6.30;5.73;;;18.80;31.70;;;;;;5109315;28;20385;-69
2021/04/28 12:53:48;;;;;;;8.17;6.57;;;18.80;31.80;;;;;;5110424;28;20483;-69
2021/04/28 12:56:13;;;;;;;8.80;6.60;;;18.70;32.30;;;;;;5109819;28;20431;-69
2021/04/28 12:58:45;;;;;;;8.70;6.00;;;18.70;33.00;;;;;;5109155;28;20196;-69
2021/04/28 13:03:54;;;;;;;5.80;5.30;;;18.70;31.80;;;;;;5090570;28;20907;-69
2021/04/28 13:06:22;;;;;;;5.93;5.13;;;18.80;31.40;;;;;;5090959;28;20385;-69
2021/04/28 13:08:50;;;;;;;5.17;4.67;;;18.80;31.60;;;;;;5090770;28;20202;-69
2021/04/28 13:11:18;;;;;;;5.67;4.67;;;18.90;30.50;;;;;;5090436;28;20374;-69
2021/04/28 13:13:50;;;;;;;6.20;5.60;;;19.10;30.90;;;;;;5090461;28;20413;-69
2021/04/28 13:22:01;;;;;;;7.03;5.50;;;19.40;31.10;;;;;;5111356;27;20516;-69
2021/04/28 13:35:31;;;;;;;5.90;5.30;;;19.60;30.90;;;;;;5152448;27;20514;-69
2021/04/28 13:40:39;;;;;;;10.90;6.10;;;19.60;30.90;;;;;;5110948;27;20560;-68
2021/04/28 13:43:08;;;;;;;7.27;5.17;;;19.60;30.80;;;;;;5110856;28;20406;-68
2021/04/28 13:45:34;;;;;;;6.33;5.20;;;19.60;30.10;;;;;;5110786;28;20380;-68
2021/04/28 13:48:00;;;;;;;6.90;5.50;;;19.60;30.50;;;;;;5111194;28;20418;-68
2021/04/28 13:50:26;;;;;;;6.50;5.27;;;19.50;30.70;;;;;;5091169;28;20407;-68
2021/04/28 13:52:51;;;;;;;6.70;5.60;;;19.30;31.20;;;;;;5090339;28;20153;-68
2021/04/28 13:55:17;;;;;;;8.13;6.37;;;19.20;32.00;;;;;;5090295;28;20163;-68
2021/04/28 13:57:43;;;;;;;5.93;5.10;;;19.10;31.90;;;;;;5090103;28;20174;-68
2021/04/28 14:00:13;;;;;;;7.50;6.07;;;19.00;32.10;;;;;;5090764;28;20200;-68